Time;durP1;ratioP1;P1;durP2;ratioP2;P2;SDS_P1;SDS_P2;PMS_P1;PMS_P2;Temp;Humidity;BMP_temperature;BMP_pressure;BME280_temperature;BME280_humidity;BME280_pressure;Samples;Min_cycle;Max_cycle;Signal;HPM_P1;HPM_P2
2022/12/14 06:03:34;;;;;;;25.98;14.65;;;-0.60;99.90;;;;;;4925604;23;20042;-77
2022/12/14 06:06:05;;;;;;;28.50;15.35;;;-0.60;99.90;;;;;;4879063;29;20100;-77
2022/12/14 06:08:39;;;;;;;25.40;14.43;;;-0.60;99.90;;;;;;4869732;29;20029;-75
2022/12/14 06:11:14;;;;;;;26.20;15.15;;;-0.60;99.90;;;;;;4885072;29;20099;-77
2022/12/14 06:13:41;;;;;;;28.20;15.73;;;-0.60;99.90;;;;;;4889052;29;20039;-76
2022/12/14 06:16:13;;;;;;;28.35;14.95;;;-0.60;99.90;;;;;;4889793;29;20036;-76
2022/12/14 06:18:47;;;;;;;29.33;15.52;;;-0.60;99.90;;;;;;4866553;29;20041;-76
2022/12/14 06:21:14;;;;;;;29.60;16.13;;;-0.60;99.90;;;;;;4872582;29;20021;-77
2022/12/14 06:23:40;;;;;;;28.17;16.13;;;-0.60;99.90;;;;;;4870754;29;20034;-75
2022/12/14 06:26:06;;;;;;;27.10;14.68;;;-0.50;99.90;;;;;;4870671;29;20338;-76
2022/12/14 06:28:33;;;;;;;29.33;15.55;;;-0.40;99.90;;;;;;4870276;29;20057;-76
2022/12/14 06:30:59;;;;;;;25.88;15.27;;;-0.40;99.90;;;;;;4870941;29;20034;-76
2022/12/14 06:33:24;;;;;;;27.63;14.82;;;-0.30;99.90;;;;;;4870293;29;20039;-77
2022/12/14 06:35:50;;;;;;;27.35;15.30;;;-0.30;99.90;;;;;;4884402;29;20327;-75
2022/12/14 06:38:16;;;;;;;27.55;16.73;;;-0.30;99.90;;;;;;4888796;29;20029;-76
2022/12/14 06:40:43;;;;;;;26.13;14.68;;;-0.30;99.90;;;;;;4856795;29;20056;-76
2022/12/14 06:43:09;;;;;;;27.48;14.88;;;-0.30;99.90;;;;;;4889007;29;20033;-77
2022/12/14 06:45:34;;;;;;;28.73;15.20;;;-0.20;99.90;;;;;;4888781;29;20067;-76
2022/12/14 06:48:00;;;;;;;30.70;16.50;;;-0.20;99.90;;;;;;4889371;29;20035;-75
2022/12/14 06:50:29;;;;;;;29.05;15.15;;;-0.30;99.90;;;;;;4888697;29;20040;-76
2022/12/14 06:52:55;;;;;;;27.75;15.70;;;-0.20;99.90;;;;;;4889162;29;20032;-76
2022/12/14 06:55:25;;;;;;;28.30;15.55;;;-0.30;99.90;;;;;;4889358;29;20092;-78
2022/12/14 06:57:51;;;;;;;31.77;17.25;;;-0.30;99.90;;;;;;4881276;29;20043;-75
2022/12/14 07:00:18;;;;;;;37.38;17.02;;;-0.30;99.90;;;;;;4870885;29;20086;-76
2022/12/14 07:02:45;;;;;;;31.80;17.70;;;-0.30;99.90;;;;;;4861257;29;20057;-75
2022/12/14 07:05:11;;;;;;;30.45;17.00;;;-0.30;99.90;;;;;;4872413;29;20037;-77
2022/12/14 07:07:37;;;;;;;32.65;18.70;;;-0.40;99.90;;;;;;4874366;29;20057;-77
2022/12/14 07:10:03;;;;;;;32.63;17.85;;;-0.40;99.90;;;;;;4875259;29;20089;-75
2022/12/14 07:12:32;;;;;;;36.67;18.58;;;-0.40;99.90;;;;;;4871890;29;20029;-75
2022/12/14 07:14:57;;;;;;;34.15;18.27;;;-0.50;99.90;;;;;;4870579;29;20100;-78
2022/12/14 07:17:29;;;;;;;34.75;19.23;;;-0.50;99.90;;;;;;4870395;29;20232;-79
2022/12/14 07:19:55;;;;;;;34.55;18.33;;;-0.50;99.90;;;;;;4870115;29;20142;-75
2022/12/14 07:22:21;;;;;;;35.97;19.40;;;-0.50;99.90;;;;;;4870018;29;20038;-77
2022/12/14 07:24:47;;;;;;;33.58;17.85;;;-0.50;99.90;;;;;;4869326;29;20221;-77
2022/12/14 07:27:15;;;;;;;34.55;18.65;;;-0.40;99.90;;;;;;4869703;29;20033;-77
2022/12/14 07:29:40;;;;;;;34.60;19.30;;;-0.40;99.90;;;;;;4867291;29;20045;-76
2022/12/14 07:32:06;;;;;;;34.05;18.05;;;-0.40;99.90;;;;;;4864641;29;20056;-75
2022/12/14 07:34:32;;;;;;;32.75;18.25;;;-0.40;99.90;;;;;;4868204;29;20060;-76
2022/12/14 07:36:57;;;;;;;33.70;18.73;;;-0.40;99.90;;;;;;4852200;29;20100;-77
2022/12/14 07:39:24;;;;;;;34.17;18.00;;;-0.40;99.90;;;;;;4868390;29;20222;-76
2022/12/14 07:41:51;;;;;;;35.53;18.40;;;-0.40;99.90;;;;;;4867822;29;20029;-76
2022/12/14 07:44:20;;;;;;;34.08;18.50;;;-0.30;99.90;;;;;;4851658;29;20041;-75
2022/12/14 07:46:45;;;;;;;33.38;17.77;;;-0.30;99.90;;;;;;4848072;29;20098;-76
2022/12/14 07:49:11;;;;;;;33.63;18.73;;;-0.30;99.90;;;;;;4833591;29;20308;-76
2022/12/14 07:51:43;;;;;;;35.30;18.65;;;-0.20;99.90;;;;;;4849158;29;20339;-76
2022/12/14 07:54:10;;;;;;;32.97;17.77;;;-0.10;99.90;;;;;;4849663;29;20168;-76
2022/12/14 07:56:39;;;;;;;37.00;19.20;;;-0.20;99.90;;;;;;4833335;29;20083;-76
2022/12/14 07:59:08;;;;;;;30.48;18.02;;;-0.20;99.90;;;;;;4866839;29;20029;-77
2022/12/14 08:01:35;;;;;;;37.92;19.35;;;-0.10;99.90;;;;;;4867674;29;20061;-76
2022/12/14 08:04:07;;;;;;;33.90;18.10;;;0.00;99.90;;;;;;4867781;29;20045;-76
2022/12/14 08:06:34;;;;;;;33.80;18.73;;;0.10;99.90;;;;;;4850870;29;20046;-76
2022/12/14 08:09:00;;;;;;;31.58;17.38;;;0.10;99.90;;;;;;4868105;29;20222;-76
2022/12/14 08:11:27;;;;;;;31.92;17.75;;;0.20;99.90;;;;;;4868160;29;20311;-76
2022/12/14 08:13:53;;;;;;;32.50;17.65;;;0.20;99.90;;;;;;4867711;29;20378;-77
2022/12/14 08:16:19;;;;;;;33.92;18.60;;;0.20;99.90;;;;;;4867879;29;20226;-76
2022/12/14 08:18:45;;;;;;;33.45;18.05;;;0.20;99.90;;;;;;4854476;29;20093;-76
2022/12/14 08:21:12;;;;;;;32.90;17.98;;;0.30;99.90;;;;;;4855322;29;20317;-75
2022/12/14 08:23:40;;;;;;;33.15;18.98;;;0.20;99.90;;;;;;4871473;29;20307;-75
2022/12/14 08:26:06;;;;;;;32.53;18.23;;;0.30;99.90;;;;;;4871606;29;20411;-76
2022/12/14 08:28:34;;;;;;;30.30;16.88;;;0.40;99.90;;;;;;4871137;29;20072;-76
2022/12/14 08:31:12;;;;;;;25.35;14.40;;;0.40;99.90;;;;;;4870789;29;20029;-75
2022/12/14 08:33:45;;;;;;;;;;;0.50;99.90;;;;;;4871534;29;20131;-79
2022/12/14 08:36:14;;;;;;;35.17;18.27;;;0.50;99.90;;;;;;4871307;29;19915;-75
2022/12/14 08:38:40;;;;;;;35.53;18.67;;;0.60;99.90;;;;;;4862145;29;20033;-75
2022/12/14 08:41:09;;;;;;;32.00;18.60;;;0.70;99.90;;;;;;4853241;29;20102;-75
2022/12/14 08:43:35;;;;;;;;;;;0.70;99.90;;;;;;4852867;29;20045;-75
2022/12/14 08:46:05;;;;;;;31.75;17.42;;;0.70;99.90;;;;;;4852625;29;20090;-77
2022/12/14 08:48:31;;;;;;;33.05;17.63;;;0.70;99.90;;;;;;4852648;29;20089;-77
2022/12/14 08:51:07;;;;;;;36.67;18.83;;;0.70;99.90;;;;;;4852741;29;20203;-76
2022/12/14 08:53:39;;;;;;;32.20;18.23;;;0.70;99.90;;;;;;4852179;29;20248;-77
2022/12/14 08:56:10;;;;;;;30.85;19.50;;;0.60;99.90;;;;;;4853005;29;20037;-76
2022/12/14 08:58:38;;;;;;;32.42;19.08;;;0.70;99.90;;;;;;4865464;29;20114;-77
2022/12/14 09:01:07;;;;;;;31.98;18.38;;;0.70;99.90;;;;;;4871184;29;20100;-76
2022/12/14 09:03:33;;;;;;;36.13;19.83;;;0.70;99.90;;;;;;4870579;29;20068;-77
2022/12/14 09:06:09;;;;;;;37.50;19.00;;;0.80;99.90;;;;;;4871159;29;20033;-77
2022/12/14 09:08:35;;;;;;;33.70;18.27;;;0.90;99.90;;;;;;4870713;29;20029;-76
2022/12/14 09:11:02;;;;;;;35.42;18.63;;;1.00;99.90;;;;;;4871176;29;20029;-76
2022/12/14 09:13:28;;;;;;;35.67;18.95;;;1.00;99.90;;;;;;4854594;29;20047;-75
2022/12/14 09:16:02;;;;;;;32.00;18.90;;;1.10;99.90;;;;;;4853895;29;20116;-77
2022/12/14 09:18:28;;;;;;;34.80;19.80;;;1.20;99.90;;;;;;4871377;29;20037;-76
2022/12/14 09:20:55;;;;;;;36.42;18.70;;;1.20;99.90;;;;;;4870704;29;20087;-75
2022/12/14 09:23:22;;;;;;;36.40;19.85;;;1.10;99.90;;;;;;4870654;29;20056;-75
2022/12/14 09:26:04;;;;;;;34.63;19.75;;;1.10;99.90;;;;;;4870258;29;20045;-75
2022/12/14 09:28:32;;;;;;;35.72;20.00;;;1.00;99.90;;;;;;4870222;29;20034;-74
2022/12/14 09:31:01;;;;;;;33.47;19.35;;;0.90;99.90;;;;;;4870712;29;20045;-75
2022/12/14 09:33:28;;;;;;;36.13;20.40;;;0.90;99.90;;;;;;4857093;29;20319;-75
2022/12/14 09:36:05;;;;;;;36.10;19.00;;;0.90;99.90;;;;;;4871273;29;20045;-76
2022/12/14 09:38:33;;;;;;;37.22;19.17;;;0.90;99.90;;;;;;4870589;29;20030;-75
2022/12/14 09:41:14;;;;;;;36.15;19.88;;;0.80;99.90;;;;;;4870529;29;20030;-73
2022/12/14 09:43:43;;;;;;;36.75;20.67;;;0.90;99.90;;;;;;4853322;29;20077;-75
2022/12/14 09:46:17;;;;;;;36.28;20.83;;;0.90;99.90;;;;;;4870153;29;20061;-72
2022/12/14 09:48:43;;;;;;;33.13;18.85;;;0.80;99.90;;;;;;4869946;29;20021;-75
2022/12/14 09:51:15;;;;;;;36.42;19.65;;;0.80;99.90;;;;;;4854063;29;20113;-74
2022/12/14 09:53:43;;;;;;;35.78;19.92;;;0.80;99.90;;;;;;4870118;29;20051;-75
2022/12/14 09:56:21;;;;;;;41.75;20.02;;;0.80;99.90;;;;;;4870390;29;20097;-76
2022/12/14 09:58:56;;;;;;;34.88;18.98;;;0.80;99.90;;;;;;4853284;29;20252;-74
2022/12/14 10:01:47;;;;;;;39.03;21.05;;;0.80;99.90;;;;;;4870104;29;20345;-81
2022/12/14 10:04:35;;;;;;;39.17;20.77;;;0.80;99.90;;;;;;4853049;29;20108;-75
2022/12/14 10:07:41;;;;;;;37.60;21.42;;;0.80;99.90;;;;;;4869747;29;20395;-77
2022/12/14 10:10:25;;;;;;;38.85;20.10;;;0.80;99.90;;;;;;4804533;29;20236;-74
2022/12/14 10:13:23;;;;;;;40.35;21.65;;;0.80;99.90;;;;;;4869950;29;20060;-74
2022/12/14 10:16:00;;;;;;;;;;;0.70;99.90;;;;;;4838718;29;20033;-75
2022/12/14 10:18:58;;;;;;;39.40;20.60;;;0.70;99.90;;;;;;4869801;29;19915;-75
2022/12/14 10:21:27;;;;;;;40.20;20.63;;;0.60;99.90;;;;;;4848059;29;20067;-74
2022/12/14 10:24:00;;;;;;;38.92;20.83;;;0.70;99.90;;;;;;4869237;29;20315;-73
2022/12/14 10:26:35;;;;;;;41.80;23.00;;;0.70;99.90;;;;;;4870157;29;20141;-74
2022/12/14 10:29:06;;;;;;;42.00;23.05;;;0.80;99.90;;;;;;4868592;29;20208;-74
2022/12/14 10:31:59;;;;;;;44.15;23.48;;;0.80;99.90;;;;;;4869695;29;20040;-73
2022/12/14 10:34:29;;;;;;;44.90;23.63;;;0.90;99.90;;;;;;4859737;29;20109;-74
2022/12/14 10:37:19;;;;;;;41.85;21.48;;;0.90;99.90;;;;;;4869361;29;20320;-74
2022/12/14 10:40:07;;;;;;;36.97;20.65;;;0.90;99.90;;;;;;4868611;29;20226;-73
2022/12/14 10:42:36;;;;;;;40.17;23.08;;;1.00;99.90;;;;;;4869001;29;20319;-74
2022/12/14 10:45:07;;;;;;;40.80;22.90;;;1.00;99.90;;;;;;4869007;29;20048;-73
2022/12/14 10:47:37;;;;;;;43.00;22.85;;;1.10;99.90;;;;;;4868725;29;20111;-74
2022/12/14 10:50:12;;;;;;;41.55;22.70;;;1.10;99.90;;;;;;4869208;29;20055;-74
2022/12/14 10:52:42;;;;;;;36.08;21.30;;;1.30;99.90;;;;;;4869097;29;20041;-73
2022/12/14 10:55:22;;;;;;;39.92;21.98;;;1.30;99.90;;;;;;4869180;29;20104;-74
2022/12/14 10:57:49;;;;;;;42.83;23.98;;;1.40;99.90;;;;;;4852349;29;20068;-74
2022/12/14 11:00:16;;;;;;;40.08;22.45;;;1.40;99.90;;;;;;4852720;29;20056;-74
2022/12/14 11:02:46;;;;;;;35.92;21.27;;;1.50;99.90;;;;;;4868310;29;20056;-74
2022/12/14 11:05:35;;;;;;;40.72;21.65;;;1.60;99.90;;;;;;4869013;29;20049;-73
2022/12/14 11:08:08;;;;;;;36.05;20.58;;;1.60;99.90;;;;;;4852871;29;20256;-72
2022/12/14 11:10:40;;;;;;;41.90;22.45;;;1.70;99.90;;;;;;4868723;29;20041;-72
2022/12/14 11:13:21;;;;;;;37.45;21.50;;;1.70;99.90;;;;;;4852515;29;20021;-72
2022/12/14 11:16:10;;;;;;;37.40;21.77;;;1.80;99.90;;;;;;4868154;29;20042;-73
2022/12/14 11:18:36;;;;;;;36.63;21.33;;;1.70;99.90;;;;;;4868412;29;20045;-72
2022/12/14 11:21:04;;;;;;;38.75;20.73;;;1.60;99.90;;;;;;4868663;29;20033;-73
2022/12/14 11:23:41;;;;;;;37.33;21.13;;;1.60;99.90;;;;;;4868572;29;20085;-72
2022/12/14 11:26:24;;;;;;;37.20;20.93;;;1.70;99.90;;;;;;4868664;29;20041;-74
2022/12/14 11:28:55;;;;;;;38.60;21.48;;;1.60;99.90;;;;;;4868313;29;20779;-74
2022/12/14 11:31:22;;;;;;;42.60;23.42;;;1.50;99.90;;;;;;4868340;29;20057;-73
2022/12/14 11:33:50;;;;;;;44.80;23.25;;;1.30;99.90;;;;;;4868062;29;20367;-75
2022/12/14 11:36:35;;;;;;;43.08;22.77;;;1.20;99.90;;;;;;4868662;29;20461;-73
2022/12/14 11:39:13;;;;;;;43.55;22.95;;;1.20;99.90;;;;;;4852128;29;20134;-76
2022/12/14 11:41:45;;;;;;;40.58;23.70;;;1.30;99.90;;;;;;4868069;29;20050;-73
2022/12/14 11:44:17;;;;;;;40.28;22.83;;;1.50;99.90;;;;;;4868674;29;20043;-74
2022/12/14 11:47:12;;;;;;;41.65;23.65;;;1.70;99.90;;;;;;4867763;29;20037;-73
2022/12/14 11:49:48;;;;;;;45.05;23.25;;;1.80;99.90;;;;;;4868154;29;20041;-73
2022/12/14 11:52:22;;;;;;;38.22;21.65;;;1.90;99.90;;;;;;4868083;29;20034;-72
2022/12/14 11:54:54;;;;;;;38.22;21.98;;;2.00;99.90;;;;;;4851349;29;20341;-75
2022/12/14 11:57:25;;;;;;;38.38;22.02;;;2.00;99.90;;;;;;4868256;29;20033;-74
2022/12/14 11:59:52;;;;;;;38.35;22.92;;;2.10;99.90;;;;;;4851361;29;20277;-74
2022/12/14 12:02:37;;;;;;;41.45;23.25;;;2.20;99.90;;;;;;4867707;29;20108;-74
2022/12/14 12:05:39;;;;;;;42.88;23.88;;;2.20;99.90;;;;;;4868278;29;20053;-73
2022/12/14 12:08:27;;;;;;;39.58;22.08;;;2.40;99.90;;;;;;4817590;29;20060;-75
2022/12/14 12:11:00;;;;;;;;;;;2.50;99.90;;;;;;4851956;29;20339;-74
2022/12/14 12:13:47;;;;;;;38.60;21.25;;;2.60;99.90;;;;;;4851674;29;19915;-74
2022/12/14 12:16:22;;;;;;;41.72;23.25;;;2.80;99.90;;;;;;4868297;29;20041;-76
2022/12/14 12:18:57;;;;;;;38.47;22.42;;;2.80;99.90;;;;;;4851509;29;20146;-75
2022/12/14 12:21:28;;;;;;;39.92;22.65;;;2.90;99.90;;;;;;4868107;29;20037;-74
2022/12/14 12:24:01;;;;;;;37.72;22.95;;;3.00;99.90;;;;;;4866890;29;20091;-73
2022/12/14 12:26:32;;;;;;;38.78;23.23;;;2.90;99.90;;;;;;4860887;29;20037;-72
2022/12/14 12:29:16;;;;;;;38.50;21.75;;;2.90;99.90;;;;;;4868172;29;20268;-73
2022/12/14 12:32:00;;;;;;;37.28;22.33;;;2.80;99.90;;;;;;4867414;29;20033;-73
2022/12/14 12:34:46;;;;;;;37.72;21.38;;;2.70;99.90;;;;;;4867724;29;20126;-73
2022/12/14 12:37:30;;;;;;;36.97;22.17;;;2.60;99.90;;;;;;4867745;29;20026;-73
2022/12/14 12:40:01;;;;;;;35.63;20.02;;;2.40;99.90;;;;;;4863461;29;20375;-73
2022/12/14 12:42:49;;;;;;;35.72;21.42;;;2.30;99.90;;;;;;4852161;29;20037;-72
2022/12/14 12:45:27;;;;;;;35.67;21.05;;;2.20;99.90;;;;;;4868149;29;20227;-72
2022/12/14 12:47:59;;;;;;;38.75;21.60;;;2.20;99.90;;;;;;4868980;29;20044;-72
2022/12/14 12:50:36;;;;;;;39.25;22.80;;;2.10;99.90;;;;;;4874866;29;20101;-74
2022/12/14 12:53:15;;;;;;;36.53;21.05;;;2.10;99.90;;;;;;4873738;29;20059;-72
2022/12/14 12:55:49;;;;;;;37.30;20.45;;;2.00;99.90;;;;;;4875963;29;20300;-72
2022/12/14 12:58:32;;;;;;;37.53;22.20;;;2.10;99.90;;;;;;4875279;29;20077;-74
2022/12/14 13:01:01;;;;;;;37.00;22.67;;;2.00;99.90;;;;;;4869997;29;20061;-74
2022/12/14 13:03:36;;;;;;;33.50;21.05;;;2.00;99.90;;;;;;4869385;29;20116;-73
2022/12/14 13:06:18;;;;;;;37.70;22.95;;;2.00;99.90;;;;;;4873439;29;20290;-72
2022/12/14 13:08:46;;;;;;;40.10;22.83;;;1.90;99.90;;;;;;4871609;29;20034;-74
2022/12/14 13:11:35;;;;;;;36.85;21.83;;;1.90;99.90;;;;;;4869939;29;20117;-74
2022/12/14 13:14:21;;;;;;;38.20;21.88;;;1.90;99.90;;;;;;4871419;29;20030;-75
2022/12/14 13:17:06;;;;;;;39.40;22.23;;;1.80;99.90;;;;;;4870614;29;20057;-79
2022/12/14 13:19:49;;;;;;;40.88;22.08;;;1.70;99.90;;;;;;4855102;29;20252;-73
2022/12/14 13:22:27;;;;;;;43.10;23.33;;;1.50;99.90;;;;;;4871367;29;20030;-76
2022/12/14 13:24:55;;;;;;;44.75;24.52;;;1.50;99.90;;;;;;4870729;29;20596;-74
2022/12/14 13:27:26;;;;;;;41.92;23.60;;;1.30;99.90;;;;;;4854972;29;20040;-76
2022/12/14 13:29:58;;;;;;;41.67;23.15;;;1.30;99.90;;;;;;4870360;29;20033;-79
2022/12/14 13:32:42;;;;;;;40.92;23.85;;;1.40;99.90;;;;;;4869836;29;20335;-73
2022/12/14 13:35:40;;;;;;;41.33;23.38;;;1.40;99.90;;;;;;4871053;29;20037;-73
2022/12/14 13:38:14;;;;;;;43.67;23.73;;;1.50;99.90;;;;;;4869578;29;20052;-73
2022/12/14 13:40:57;;;;;;;48.28;24.35;;;1.60;99.90;;;;;;4870447;29;20347;-73
2022/12/14 13:44:03;;;;;;;40.85;23.58;;;1.60;99.90;;;;;;4870874;29;20045;-73
2022/12/14 13:46:29;;;;;;;39.47;22.92;;;1.80;99.90;;;;;;4870272;29;20343;-73
2022/12/14 13:49:05;;;;;;;43.17;24.50;;;1.70;99.90;;;;;;4869970;29;20331;-73
2022/12/14 13:51:37;;;;;;;52.45;24.80;;;1.70;99.90;;;;;;4870320;29;20281;-73
2022/12/14 13:54:16;;;;;;;44.60;25.20;;;1.60;99.90;;;;;;4870725;29;20033;-73
2022/12/14 13:56:42;;;;;;;45.45;24.58;;;1.50;99.90;;;;;;4870137;29;20044;-73
2022/12/14 13:59:27;;;;;;;47.55;24.52;;;1.50;99.90;;;;;;4870280;29;20042;-72
2022/12/14 14:01:56;;;;;;;45.65;24.33;;;1.40;99.90;;;;;;4869263;29;20044;-72
2022/12/14 14:04:24;;;;;;;43.92;24.15;;;1.40;99.90;;;;;;4870183;29;20085;-72
2022/12/14 14:06:55;;;;;;;42.25;24.00;;;1.40;99.90;;;;;;4852863;29;20041;-71
2022/12/14 14:09:32;;;;;;;44.42;23.90;;;1.50;99.90;;;;;;4869943;29;20064;-72
2022/12/14 14:12:04;;;;;;;46.00;24.73;;;1.40;99.90;;;;;;4869345;29;20048;-71
2022/12/14 14:15:08;;;;;;;41.63;22.75;;;1.30;99.90;;;;;;4869599;29;20041;-71
2022/12/14 14:17:38;;;;;;;40.65;22.80;;;1.10;99.90;;;;;;4869342;29;20061;-72
2022/12/14 14:20:36;;;;;;;40.90;22.42;;;1.00;99.90;;;;;;4853485;29;20041;-71
2022/12/14 14:23:27;;;;;;;40.10;22.10;;;0.90;99.90;;;;;;4869815;29;20049;-71
2022/12/14 14:26:15;;;;;;;41.88;22.25;;;0.80;99.90;;;;;;4864565;29;20374;-73
2022/12/14 14:28:41;;;;;;;;;;;0.70;99.90;;;;;;4870090;29;20041;-72
2022/12/14 14:31:07;;;;;;;38.70;21.05;;;0.70;99.90;;;;;;4869921;29;19953;-71
2022/12/14 14:33:48;;;;;;;42.22;22.33;;;0.70;99.90;;;;;;4869390;29;20176;-72
2022/12/14 14:36:32;;;;;;;41.90;22.83;;;0.60;99.90;;;;;;4869425;29;20038;-71
2022/12/14 14:39:03;;;;;;;39.15;21.52;;;0.60;99.90;;;;;;4868862;29;20069;-73
2022/12/14 14:41:34;;;;;;;43.42;22.88;;;0.50;99.90;;;;;;4869489;29;20029;-71
2022/12/14 14:44:06;;;;;;;45.03;23.98;;;0.40;99.90;;;;;;4853202;29;20041;-72
2022/12/14 14:46:44;;;;;;;44.00;23.17;;;0.40;99.90;;;;;;4869160;29;20041;-71
2022/12/14 14:49:29;;;;;;;42.83;24.15;;;0.30;99.90;;;;;;4869467;29;20037;-72
2022/12/14 14:51:55;;;;;;;44.58;24.50;;;0.30;99.90;;;;;;4868792;29;20120;-71
2022/12/14 14:54:22;;;;;;;45.22;24.05;;;0.40;99.90;;;;;;4852846;29;20041;-71
2022/12/14 14:56:51;;;;;;;42.45;24.10;;;0.40;99.90;;;;;;4868778;29;20041;-72
2022/12/14 14:59:20;;;;;;;43.58;24.33;;;0.40;99.90;;;;;;4850701;29;20312;-71
2022/12/14 15:01:48;;;;;;;;;;;0.40;99.90;;;;;;4834672;29;20058;-72
2022/12/14 15:04:16;;;;;;;42.90;22.17;;;0.30;99.90;;;;;;4834207;29;19923;-71
2022/12/14 15:06:46;;;;;;;50.00;25.20;;;0.30;99.90;;;;;;4849785;29;20038;-73
2022/12/14 15:09:29;;;;;;;43.85;22.70;;;0.20;99.90;;;;;;4850665;29;20030;-72
2022/12/14 15:12:17;;;;;;;44.58;23.60;;;0.20;99.90;;;;;;4850307;29;20085;-72
2022/12/14 15:14:51;;;;;;;46.33;24.10;;;0.30;99.90;;;;;;4849910;29;20317;-71
2022/12/14 15:17:17;;;;;;;47.95;24.88;;;0.30;99.90;;;;;;4834404;29;20052;-72
2022/12/14 15:19:49;;;;;;;45.47;24.08;;;0.20;99.90;;;;;;4849961;29;20045;-71
2022/12/14 15:22:19;;;;;;;45.08;23.90;;;0.10;99.90;;;;;;4850657;29;20045;-71
2022/12/14 15:24:47;;;;;;;40.38;22.48;;;0.20;99.90;;;;;;4854033;29;20110;-72
2022/12/14 15:27:22;;;;;;;47.53;24.77;;;0.20;99.90;;;;;;4868298;29;20048;-72
2022/12/14 15:29:49;;;;;;;42.90;23.23;;;0.20;99.90;;;;;;4868225;29;20239;-72
2022/12/14 15:32:17;;;;;;;42.78;22.52;;;0.10;99.90;;;;;;4868519;29;20105;-72
2022/12/14 15:34:58;;;;;;;39.88;21.45;;;0.10;99.90;;;;;;4868143;29;20033;-72
2022/12/14 15:37:41;;;;;;;41.58;21.10;;;0.00;99.90;;;;;;4836900;29;20432;-71
2022/12/14 15:40:19;;;;;;;43.60;22.95;;;0.00;99.90;;;;;;4868792;29;20029;-70
2022/12/14 15:42:54;;;;;;;39.70;21.73;;;0.00;99.90;;;;;;4868379;29;20429;-70
2022/12/14 15:45:29;;;;;;;41.35;21.48;;;0.00;99.90;;;;;;4868604;29;20041;-71
2022/12/14 15:47:54;;;;;;;39.50;22.17;;;0.00;99.90;;;;;;4851406;29;20037;-71
2022/12/14 15:50:29;;;;;;;40.97;22.15;;;-0.10;99.90;;;;;;4868529;29;20041;-72
2022/12/14 15:53:00;;;;;;;42.65;23.67;;;-0.20;99.90;;;;;;4867914;29;20365;-72
2022/12/14 15:55:38;;;;;;;44.08;23.60;;;-0.20;99.90;;;;;;4852265;29;20046;-75
2022/12/14 15:58:16;;;;;;;38.40;21.30;;;-0.10;99.90;;;;;;4851954;29;20081;-73
2022/12/14 16:00:46;;;;;;;41.17;22.48;;;-0.20;99.90;;;;;;4867883;29;20064;-72
2022/12/14 16:03:37;;;;;;;41.50;22.35;;;-0.30;99.90;;;;;;4868124;29;20045;-73
2022/12/14 16:06:04;;;;;;;41.88;22.10;;;-0.30;99.90;;;;;;4868628;29;20041;-73
2022/12/14 16:08:34;;;;;;;40.05;22.20;;;-0.30;99.90;;;;;;4868194;29;20042;-73
2022/12/14 16:11:05;;;;;;;42.58;22.45;;;-0.30;99.90;;;;;;4852056;29;20386;-72
2022/12/14 16:13:38;;;;;;;41.80;22.02;;;-0.40;99.90;;;;;;4868259;29;20325;-74
2022/12/14 16:16:10;;;;;;;41.67;22.10;;;-0.30;99.90;;;;;;4865970;29;20227;-72
2022/12/14 16:18:45;;;;;;;37.30;21.40;;;-0.30;99.90;;;;;;4867909;29;20105;-72
2022/12/14 16:21:29;;;;;;;38.58;21.38;;;-0.40;99.90;;;;;;4868147;29;20045;-71
2022/12/14 16:23:56;;;;;;;39.40;21.15;;;-0.40;99.90;;;;;;4851408;29;20049;-72
2022/12/14 16:26:35;;;;;;;40.35;21.45;;;-0.30;99.90;;;;;;4836339;29;20123;-73
2022/12/14 16:29:22;;;;;;;45.45;23.15;;;-0.40;99.90;;;;;;4868036;29;20287;-73
2022/12/14 16:31:48;;;;;;;42.13;21.88;;;-0.40;99.90;;;;;;4867148;29;20045;-72
2022/12/14 16:34:19;;;;;;;44.67;23.63;;;-0.40;99.90;;;;;;4868103;29;20037;-72
2022/12/14 16:36:47;;;;;;;41.25;22.50;;;-0.50;99.90;;;;;;4867566;29;20038;-71
2022/12/14 16:39:25;;;;;;;43.30;23.23;;;-0.40;99.90;;;;;;4869233;29;20088;-72
2022/12/14 16:41:54;;;;;;;42.17;22.48;;;-0.40;99.90;;;;;;4870001;29;20100;-73
2022/12/14 16:44:22;;;;;;;42.85;23.25;;;-0.30;99.90;;;;;;4872800;29;20229;-71
2022/12/14 16:47:10;;;;;;;43.53;22.75;;;-0.30;99.90;;;;;;4836455;29;20042;-72
2022/12/14 16:49:41;;;;;;;39.58;21.55;;;-0.40;99.90;;;;;;4834082;29;20042;-72
2022/12/14 16:52:16;;;;;;;37.53;20.75;;;-0.30;99.90;;;;;;4853294;29;20041;-73
2022/12/14 16:54:42;;;;;;;40.78;20.58;;;-0.30;99.90;;;;;;4852460;29;20060;-73
2022/12/14 16:57:20;;;;;;;39.65;21.05;;;-0.30;99.90;;;;;;4855183;29;20042;-73
2022/12/14 16:59:54;;;;;;;;;;;-0.30;99.90;;;;;;4871333;29;20049;-72
2022/12/14 17:02:39;;;;;;;36.28;19.65;;;-0.30;99.90;;;;;;4854305;29;19916;-73
2022/12/14 17:05:13;;;;;;;38.38;19.52;;;-0.30;99.90;;;;;;4871217;29;20039;-72
2022/12/14 17:07:39;;;;;;;40.28;20.15;;;-0.30;99.90;;;;;;4870867;29;20041;-73
2022/12/14 17:10:16;;;;;;;35.93;20.20;;;-0.30;99.90;;;;;;4871204;29;20050;-73
2022/12/14 17:12:46;;;;;;;37.17;20.63;;;-0.30;99.90;;;;;;4870678;29;20230;-73
2022/12/14 17:15:13;;;;;;;37.72;20.52;;;-0.40;99.90;;;;;;4871066;29;20029;-72
2022/12/14 17:17:39;;;;;;;36.20;20.13;;;-0.30;99.90;;;;;;4854064;29;20311;-72
2022/12/14 17:20:10;;;;;;;40.47;21.73;;;-0.30;99.90;;;;;;4871190;29;20036;-73
2022/12/14 17:22:36;;;;;;;40.17;21.48;;;-0.30;99.90;;;;;;4854124;29;20045;-72
2022/12/14 17:25:05;;;;;;;37.13;20.48;;;-0.30;99.90;;;;;;4870850;29;20432;-73
2022/12/14 17:27:30;;;;;;;39.78;21.27;;;-0.30;99.90;;;;;;4854621;29;20045;-71
2022/12/14 17:29:56;;;;;;;37.78;20.08;;;-0.30;99.90;;;;;;4869426;29;20041;-73
2022/12/14 17:32:27;;;;;;;39.65;20.10;;;-0.40;99.90;;;;;;4870546;29;20037;-73
2022/12/14 17:34:53;;;;;;;39.33;20.55;;;-0.30;99.90;;;;;;4870034;29;20037;-72
2022/12/14 17:37:22;;;;;;;40.38;21.27;;;-0.30;99.90;;;;;;4870603;29;20040;-74
2022/12/14 17:39:49;;;;;;;39.22;21.02;;;-0.40;99.90;;;;;;4850736;29;20058;-72
2022/12/14 17:42:17;;;;;;;37.95;21.35;;;-0.40;99.90;;;;;;4852152;29;20053;-75
2022/12/14 17:44:50;;;;;;;44.50;22.80;;;-0.40;99.90;;;;;;4855633;29;20044;-74
2022/12/14 17:47:16;;;;;;;37.28;20.15;;;-0.50;99.90;;;;;;4870598;29;20480;-75
2022/12/14 17:49:42;;;;;;;36.97;19.98;;;-0.50;99.90;;;;;;4869203;29;20086;-74
2022/12/14 17:52:19;;;;;;;38.22;19.73;;;-0.50;99.90;;;;;;4870353;29;20052;-73
2022/12/14 17:54:45;;;;;;;40.50;20.50;;;-0.50;99.90;;;;;;4870136;29;20033;-72
2022/12/14 17:57:19;;;;;;;37.88;20.25;;;-0.60;99.90;;;;;;4870520;29;20091;-73
2022/12/14 17:59:46;;;;;;;36.90;20.05;;;-0.60;99.90;;;;;;4853703;29;20228;-74
2022/12/14 18:02:26;;;;;;;36.13;19.92;;;-0.60;99.90;;;;;;4853551;29;20341;-73
2022/12/14 18:04:52;;;;;;;32.67;19.25;;;-0.70;99.90;;;;;;4870167;29;20051;-74
2022/12/14 18:07:18;;;;;;;36.25;20.60;;;-0.60;99.90;;;;;;4870257;29;20045;-73
2022/12/14 18:09:47;;;;;;;38.63;20.55;;;-0.60;99.90;;;;;;4853343;29;20043;-73
2022/12/14 18:12:14;;;;;;;39.38;21.38;;;-0.60;99.90;;;;;;4853497;29;20057;-72
2022/12/14 18:14:41;;;;;;;38.20;21.10;;;-0.50;99.90;;;;;;4853516;29;20030;-72
2022/12/14 18:17:07;;;;;;;37.10;20.02;;;-0.50;99.90;;;;;;4870368;29;20465;-73
2022/12/14 18:19:32;;;;;;;35.42;20.50;;;-0.50;99.90;;;;;;4870090;29;20029;-72
2022/12/14 18:21:58;;;;;;;39.05;20.15;;;-0.50;99.90;;;;;;4853224;29;20132;-72
2022/12/14 18:24:27;;;;;;;36.47;20.75;;;-0.40;99.90;;;;;;4870574;29;20029;-75
2022/12/14 18:26:56;;;;;;;37.70;20.75;;;-0.50;99.90;;;;;;4869444;29;20041;-73
2022/12/14 18:29:28;;;;;;;36.13;19.20;;;-0.50;99.90;;;;;;4853705;29;20045;-73
2022/12/14 18:31:54;;;;;;;38.13;19.48;;;-0.50;99.90;;;;;;4870321;29;20273;-73
2022/12/14 18:34:19;;;;;;;35.15;19.80;;;-0.50;99.90;;;;;;4871137;29;20037;-74
2022/12/14 18:36:48;;;;;;;35.92;19.67;;;-0.50;99.90;;;;;;4876384;29;20036;-74
2022/12/14 18:39:14;;;;;;;37.10;20.30;;;-0.60;99.90;;;;;;4877754;29;20089;-74
2022/12/14 18:41:40;;;;;;;37.35;19.65;;;-0.60;99.90;;;;;;4864669;29;20044;-74
2022/12/14 18:44:09;;;;;;;35.08;19.70;;;-0.50;99.90;;;;;;4882572;29;20020;-73
2022/12/14 18:46:37;;;;;;;35.25;19.63;;;-0.60;99.90;;;;;;4861234;29;20038;-76
2022/12/14 18:49:03;;;;;;;35.97;19.75;;;-0.60;99.90;;;;;;4824271;29;20057;-74
2022/12/14 18:51:29;;;;;;;39.08;20.27;;;-0.60;99.90;;;;;;4850962;29;20049;-77
2022/12/14 18:53:57;;;;;;;38.33;19.73;;;-0.60;99.90;;;;;;4834361;29;20034;-75
2022/12/14 18:56:24;;;;;;;38.50;20.63;;;-0.60;99.90;;;;;;4834658;29;20224;-78
2022/12/14 18:58:51;;;;;;;37.17;20.30;;;-0.50;99.90;;;;;;4865813;29;20025;-73
2022/12/14 19:01:20;;;;;;;38.33;20.52;;;-0.50;99.90;;;;;;4868690;29;20229;-72
2022/12/14 19:03:46;;;;;;;38.97;20.88;;;-0.50;99.90;;;;;;4868356;29;20037;-75
2022/12/14 19:06:12;;;;;;;35.90;20.17;;;-0.50;99.90;;;;;;4869035;29;20037;-73